SiktMolnbas
>≥ 10km≥ 10km ≥ 2000ft≥ 2000ft
< 10km< 10km < 2000ft< 2000ft
< 8km< 8km < 1500ft< 1500ft
< 5km< 5km < 1000ft< 1000ft
< 3km< 3km < 500ft< 500ft

Nytt 18 jan 2017:

Nytt 17 jan 2017:

ESNQ (16:50 UTC)

Kiruna flygplats

METAR

ESNQ 031650Z AUTO 24010KT 9999 SCT062/// 22/07 Q1010=

TAF

ESNQ AMD 031559Z 0315/0317 23009KT CAVOK=

ESNG (16:50 UTC)

Gällivare (Kavaheden), Lapland Airport

METAR

ESNG 031650Z 23010KT CAVOK 23/06 Q1010=

TAF

ESNG 031430Z 0315/0321 21010KT CAVOK=

ESPA (16:50 UTC)

Luleå Airport (Kallax)

METAR

ESPA 031650Z 19011KT CAVOK 22/14 Q1011=

TAF

ESPA 031430Z 0315/0322 21010KT CAVOK=

ESNL (16:50 UTC)

Lycksele flygplats

METAR

ESNL 031650Z 23007KT 200V280 CAVOK 22/07 Q1012=

TAF

Ingen TAF hittades.

ESNU (16:50 UTC)

Umeå City Airport

METAR

ESNU 031650Z 20010KT CAVOK 20/14 Q1014=

TAF

ESNU 031430Z 0315/0324 19010KT CAVOK=

ESNO (16:50 UTC)

Örnsköldsvik flygplats

METAR

ESNO 031650Z AUTO 19010KT 160V220 9999 NCD 20/13 Q1013=

TAF

Ingen TAF hittades.

ESNK (16:50 UTC)

Kramfors-Sollefteå flygplats

METAR

ESNK 031650Z AUTO 17012KT 9999 FEW092/// 22/11 Q1013=

TAF

ESNK 031130Z 0312/0315 16010KT CAVOK=

ESNN (16:50 UTC)

Sundsvall-Härnösands flygplats (Midlanda)

METAR

ESNN 031650Z 13012KT CAVOK 22/13 Q1013=

TAF

Ingen TAF hittades.

ESNZ (16:50 UTC)

Åre Östersund Airport (Frösön)

METAR

ESNZ 031650Z AUTO 17012KT 9999 NCD 18/10 Q1011=

TAF

CB

ESNZ 031430Z 0315/0318 19012KT 9999 SCT050 PROB40 0315/0318 BKN045CB=

ESNS (16:50 UTC)

Skellefteå flygplats

METAR

ESNS 031650Z 18010KT 150V210 CAVOK 23/11 Q1012=

TAF

ESNS 031430Z 0315/0319 18009KT CAVOK=

ESGT (16:50 UTC)

Trollhättan-Vänersborgs flygplats (Malöga flygplats)

METAR

ESGT 031650Z AUTO 19010KT 9999 NCD 20/13 Q1015=

TAF

SHRACB

ESGT 031430Z 0315/0317 17010KT CAVOK TEMPO 0315/0317 SHRA BKN013 BKN065CB=

ESGP (16:50 UTC)

Göteborg City Airport (Säve)

METAR

ESGP 031650Z 24004KT CAVOK 19/14 Q1016=

TAF

SHRACB

ESGP 031430Z 0315/0321 15008KT CAVOK PROB40 0315/0321 SHRA SCT060CB=

ESGG (16:50 UTC)

Göteborg-Landvetter flygplats

METAR

ESGG 031650Z 17007KT 9999 FEW017 SCT130 18/14 Q1016=

TAF

TSSHRACB

ESGG 031430Z 0315/0415 15010KT CAVOK TEMPO 0315/0415 SHRA SCT060CB PROB40 0318/0321 BKN010 PROB40 0400/0404 2500 TSRA BKN008 BKN040CB=

ESMT (16:50 UTC)

Halmstads flygplats

METAR

SHRA

ESMT 031650Z VRB03KT 9999 SHRA FEW007 BKN058 19/16 Q1016=

TAF

ESMT CNL 031603Z 0316/0320 CNL=

ESTA (16:50 UTC)

Ängelholm-Helsingborg flygplats

METAR

RA

ESTA 031650Z 22009KT 9000 RA FEW031 BKN053 19/15 Q1016=

TAF

SHRACB

ESTA 031402Z 0315/0320 17012KT CAVOK TEMPO 0315/0320 VRB03KT SHRA SCT040CB=

ESTL (16:50 UTC)

Ljungbyheds flygplats

METAR

ESTL 031650Z AUTO 16008KT 9999 SCT065/// 22/13 Q1016=

TAF

Ingen TAF hittades.

ESMS (16:50 UTC)

Malmö Airport

METAR

ESMS 031650Z 13011KT CAVOK 22/13 Q1016=

TAF

SHRACB

ESMS 031404Z 0315/0415 15012KT CAVOK TEMPO 0317/0404 SHRA BKN030CB PROB40 TEMPO 0320/0324 VRB15G25KT 2500 +TSRA BECMG 0400/0402 26010KT TEMPO 0404/0408 BKN010=

ESMK (16:50 UTC)

Kristianstad Airport

METAR

ESMK 031650Z AUTO 13012KT 9999 FEW130/// 21/16 Q1017=

TAF

ESMK 031113Z 0312/0316 15014KT CAVOK=

ESDF (16:50 UTC)

Ronneby flygplats

METAR

ESDF 031650Z AUTO 16008KT 9999 NCD 21/14 Q1018=

TAF

Ingen TAF hittades.

ESMQ (16:50 UTC)

Kalmar Airport

METAR

ESMQ 031650Z 18010KT CAVOK ///// Q1018=

TAF

ESMQ 031430Z 0315/0318 17011KT CAVOK=

ESMX (16:50 UTC)

Växjö, Smaland Airport

METAR

ESMX 031650Z 17011KT CAVOK 22/10 Q1017=

TAF

ESMX 031430Z 0315/0321 17012KT CAVOK=

ESGJ (16:50 UTC)

Jönköping Airport

METAR

ESGJ 031650Z AUTO 02004KT 330V080 9000 FEW006/// BKN041/// 16/16 Q1017 RERA=

TAF

Ingen TAF hittades.

ESSA (16:50 UTC)

Stockholm-Arlanda flygplats

METAR

ESSA 031650Z 19013KT CAVOK 22/10 Q1017 NOSIG=

TAF

SHRACB

ESSA 031430Z 0315/0415 21012KT 9999 SCT055 PROB40 0409/0415 SHRA BKN040CB=

ESSB (16:50 UTC)

Stockholm-Bromma flygplats

METAR

ESSB 031650Z 18009KT 150V210 CAVOK 22/09 Q1017=

TAF

ESSB 031430Z 0315/0321 22010KT 9999 SCT055=

ESKN (16:50 UTC)

Stockholm-Skavsta flygplats

METAR

ESKN 031650Z 15010KT CAVOK 22/11 Q1017=

TAF

SHRACBTCU

ESKN 031430Z 0315/0415 16011KT CAVOK PROB40 0315/0319 SCT070TCU PROB40 0406/0415 SHRA SCT035CB=

ESSP (16:50 UTC)

Norrköping flygplats

METAR

ESSP 031650Z AUTO 14007KT 9999 OVC082/// 22/11 Q1016=

TAF

SHRACB

ESSP AMD 031432Z 0315/0317 15009KT CAVOK PROB40 0315/0317 SHRA SCT060CB=

ESSL (16:50 UTC)

Linköping - SAAB Flygplats

METAR

ESSL 031650Z AUTO 32006KT 9999 BKN059/// OVC076/// 18/14 Q1017=

TAF

SHRACB

ESSL 031430Z 0315/0323 17010KT CAVOK BECMG 0315/0317 30005KT TEMPO 0315/0320 SHRA BKN060CB=

ESSV (16:50 UTC)

Visby flygplats

METAR

ESSV 031650Z 20009KT CAVOK 21/12 Q1019=

TAF

ESSV 031430Z 0315/0320 26013KT CAVOK BECMG 0315/0317 20008KT=

ESOW (16:50 UTC)

Stockholm-Västerås flygplats

METAR

ESOW 031650Z AUTO 17004KT 9999 SCT062/// BKN098/// 21/11 Q1017=

TAF

Ingen TAF hittades.

ESOE (16:50 UTC)

Örebro flygplats

METAR

ESOE 031650Z AUTO 16007KT 9999 BKN062/// 17/14 Q1017=

TAF

SHRACB

ESOE 031430Z 0315/0321 19006KT CAVOK PROB40 0315/0321 SHRA SCT060CB=

ESOK (16:50 UTC)

Karlstad Airport

METAR

ESOK 031650Z 17009KT 140V200 CAVOK 18/12 Q1016=

TAF

TSCB

ESOK 031430Z 0315/0317 15006KT 9999 SCT030 BKN070 PROB40 0315/0317 TSRA BKN010 SCT060CB=

ESSD (16:50 UTC)

Borlänge, Dala Airport

METAR

ESSD 031650Z AUTO 19009KT 160V220 9999 FEW043/// SCT057/// BKN062/// 19/12 Q1016=

TAF

Ingen TAF hittades.

ESIB (16:50 UTC)

Såtenäs

METAR

ESIB 031650Z AUTO 22006KT 180V250 9999 BKN150/// 21/14 Q1015=

TAF

Ingen TAF hittades.

ESNV (16:50 UTC)

Vilhelmina flygplats

METAR

ESNV 031650Z AUTO 18008KT 9999 SCT069/// 20/07 Q1012=

TAF

Ingen TAF hittades.

ESUT (16:50 UTC)

Hemavans flygplats

METAR

ESUT 031650Z 19007KT 9999 SCT062 BKN094 17/10 Q1010=

TAF

Ingen TAF hittades.

ESNX (16:50 UTC)

Arvidsjaur flygplats

METAR

ESNX 031650Z 19008KT CAVOK 21/07 Q1011=

TAF

ESNX AMD 031618Z 0316/0320 19008KT CAVOK=

ESIA (16:50 UTC)

Karlsborg

METAR

RA

ESIA 031650Z AUTO 12003KT 9999 RA FEW032/// BKN068/// 15/14 Q1017 RERA=

TAF

Ingen TAF hittades.

ESUP (16:50 UTC)

Pajala

METAR

ESUP 031650Z 24009KT 210V280 CAVOK 25/10 Q1010=

TAF

Ingen TAF hittades.

ESPE (16:50 UTC)

Vidsel

METAR

ESPE 031650Z AUTO 20004KT 100V250 9999 FEW076/// SCT230/// 23/09 Q1011=

TAF

Ingen TAF hittades.

ESCM (16:50 UTC)

Uppsala

METAR

ESCM 031650Z AUTO 20007KT 9999 FEW110/// 22/12 Q1017=

TAF

Ingen TAF hittades.

ESKM (16:50 UTC)

Mora/Siljan

METAR

ESKM 031650Z AUTO 19008KT 160V230 9999 FEW039/// SCT078/// 19/12 Q1015=

TAF

Ingen TAF hittades.

EKRN (16:50 UTC)

Bornholm Airport

METAR

EKRN 031650Z AUTO 12012KT 9999 NCD 22/14 Q1017=

TAF

EKRN 031404Z 0315/0324 13010KT 9999 SCT100 TEMPO 0315/0321 13012G22KT=

EFIV (16:50 UTC)

Ivalo Airport

METAR

EFIV 031650Z AUTO 21009KT 160V230 CAVOK 25/13 Q1009=

TAF

Ingen TAF hittades.

EFKT (16:50 UTC)

Kittilä Airport

METAR

EFKT 031650Z AUTO 22009KT 180V260 CAVOK 25/11 Q1009=

TAF

EFKT 031127Z 0312/0315 20010KT 9999 SCT040=

EFRO (16:50 UTC)

Rovaniemi Airport

METAR

EFRO 031650Z AUTO 21014KT CAVOK 21/12 Q1012=

TAF

EFRO 031432Z 0315/0415 21014KT CAVOK BECMG 0320/0322 15005KT PROB40 0403/0406 BKN004 BECMG 0407/0409 21010KT=

EFKE (16:50 UTC)

Kemi-Tornio Airport

METAR

EFKE 031650Z AUTO 21012G22KT CAVOK 20/14 Q1013=

TAF

EFKE 031432Z 0315/0318 21014KT CAVOK=

EFKS (16:50 UTC)

Kuusamo Airport

METAR

EFKS 031650Z AUTO 26007KT 230V290 CAVOK 23/13 Q1013=

TAF

EFKS 031432Z 0315/0321 23008KT CAVOK=

EFOU (16:50 UTC)

Oulu Airport

METAR

EFOU 031650Z AUTO 27008KT 230V300 CAVOK 22/08 Q1014=

TAF

EFOU 031432Z 0315/0415 26010KT CAVOK BECMG 0320/0322 20005KT BECMG 0409/0411 32010KT=

EFKI (16:50 UTC)

Kajaani Airport

METAR

EFKI 031650Z AUTO 29004KT 240V320 CAVOK 24/15 Q1014=

TAF

EFKI 031432Z 0315/0318 28007KT 9999 FEW040=

EFKK (16:50 UTC)

Kokkola-Pietarsaari/Kruunupyy Airport

METAR

EFKK 031650Z AUTO 23010KT 200V270 CAVOK 23/12 Q1014=

TAF

EFKK 031432Z 0315/0318 25009KT CAVOK=

EFVA (16:50 UTC)

Vaasa Airport

METAR

EFVA 031650Z AUTO 22010KT CAVOK 21/11 Q1015=

TAF

TCU

EFVA 031432Z 0315/0415 25010KT CAVOK BECMG 0318/0320 19005KT TEMPO 0411/0415 FEW040TCU=

EFKU (16:50 UTC)

Kuopio Airport

METAR

EFKU 031650Z AUTO 28006KT CAVOK 25/12 Q1015=

TAF

EFKU 031427Z 0315/0415 26007KT CAVOK=

EFJY (16:50 UTC)

Jyväskylä Airport

METAR

EFJY 031650Z AUTO 25006KT 220V290 CAVOK 24/11 Q1016=

TAF

EFJY 031427Z 0315/0415 24008KT CAVOK=

EFTP (16:50 UTC)

Tampere-Pirkkala Airport

METAR

EFTP 031650Z AUTO 27008KT 240V310 CAVOK 23/08 Q1017=

TAF

EFTP 031427Z 0315/0415 26008KT CAVOK=

EFPO (16:50 UTC)

Pori Airport

METAR

EFPO 031650Z AUTO 23007KT 180V280 CAVOK 22/09 Q1017=

TAF

Ingen TAF hittades.

EFTU (16:50 UTC)

Turku Airport

METAR

EFTU 031650Z AUTO 25011KT CAVOK 21/11 Q1018=

TAF

EFTU 031427Z 0315/0415 26010KT CAVOK BECMG 0317/0319 20005KT PROB30 0400/0403 5000 MIFG=

EFHK (16:50 UTC)

Helsinki-Vantaa Airport

METAR

EFHK 031650Z 29006KT CAVOK 24/11 Q1017 NOSIG=

TAF

Ingen TAF hittades.

EFMA (16:50 UTC)

Mariehamn Airport

METAR

EFMA 031650Z AUTO 21009KT CAVOK 20/15 Q1017=

TAF

EFMA 031427Z 0315/0324 20013KT CAVOK BECMG 0320/0322 19003KT=

EKSB (16:50 UTC)

Sønderborg Airport

METAR

SHRATCU

EKSB 031650Z 29006KT 260V320 9999 -SHRA SCT040TCU 20/14 Q1015=

TAF

SHRACB

EKSB 031454Z 0315/0324 12005KT 9999 SCT040 TEMPO 0315/0322 SHRA SCT030CB=

EKSP (16:50 UTC)

Vojens Airport

METAR

TCU

EKSP 031650Z 28011KT 9999 FEW040TCU BKN100 19/13 Q1016=

TAF

CB

EKSP 031403Z 0315/0415 25010KT 9999 FEW040 SCT100 TEMPO 0315/0321 FEW040CB BECMG 0409/0412 25013G23KT TEMPO 0412/0415 FEW020CB=

EKEB (16:50 UTC)

Esbjerg Airport

METAR

EKEB 031650Z AUTO 28010KT 9999 FEW230/// 18/13 Q1016=

TAF

EKEB 031429Z 0315/0319 25008KT 9999 FEW040=

EKYT (16:50 UTC)

Aalborg Airport

METAR

EKYT 031650Z AUTO 34006KT 300V030 9999 FEW055/// 21/14 Q1015=

TAF

TSSHRACB

EKYT 031403Z 0315/0415 25008KT 9999 FEW040 SCT100 TEMPO 0315/0319 25012G22KT 3000 SHRA TSRA FEW015 BKN035CB TEMPO 0408/0415 25015G25KT 4000 SHRA TSRA SCT012 BKN020CB=

EKKA (16:50 UTC)

Karup Airport

METAR

EKKA 031650Z AUTO 28007KT 9999 BKN037/// BKN094/// 20/13 Q1015=

TAF

SHRACB

EKKA 031403Z 0315/0415 24010KT 9999 FEW040 SCT100 PROB40 0315/0318 6000 SHRA SCT040CB TEMPO 0406/0415 25013G23KT 5000 SHRA SCT012 BKN020CB=

EKBI (16:50 UTC)

Billund Airport

METAR

EKBI 031650Z AUTO 27010KT 230V300 9999 BKN041/// 20/12 Q1015=

TAF

SHRACB

EKBI 031107Z 0312/0412 24010KT 9999 FEW045 TEMPO 0312/0317 SHRA SCT040CB TEMPO 0408/0412 SHRA SCT025CB=

EKVD (16:50 UTC)

Kolding Airport

METAR

EKVD 031650Z AUTO 25009KT //// ///////// 19/12 Q1016=

TAF

TSSHRACB

EKVD 030900Z 0309/0315 24008KT 9999 SCT040 TEMPO 0310/0315 SHRA BKN030CB PROB40 TEMPO 0311/0315 4000 TSRA=

EKOD (16:50 UTC)

Odense Airport

METAR

EKOD 031650Z 35002KT 9999 FEW018 SCT070 BKN110 22/16 Q1015=

TAF

SHRACB

EKOD 030900Z 0309/0315 VRB05KT CAVOK TEMPO 0309/0315 SHRA SCT030CB=

EKCH (16:50 UTC)

Copenhagen Airport, Kastrup

METAR

EKCH 031650Z AUTO 15011KT 9999 NCD 22/13 Q1016 NOSIG=

TAF

SHRACB

EKCH 031107Z 0312/0412 15010KT CAVOK TEMPO 0314/0403 SHRA SCT040CB PROB40 TEMPO 0319/0323 VRB15G25KT 4000 +TSRA BECMG 0323/0402 26010KT TEMPO 0403/0407 BKN014=

EKRK (16:50 UTC)

Copenhagen Airport, Roskilde

METAR

EKRK 031650Z AUTO 11006KT 9999 SCT081/// 21/16 Q1015=

TAF

SHRACB

EKRK 031429Z 0315/0324 12008KT CAVOK TEMPO 0315/0324 SHRA SCT040CB PROB40 TEMPO 0319/0323 VRB15G25KT 4000 +TSRA=

ENRY (16:20 UTC)

Moss flygplats, Rygge

METAR

ENRY 031620Z AUTO 21011KT 9999NDV FEW019/// 19/14 Q1014=

TAF

TSSHRACB

ENRY AMD 031244Z 0312/0412 17008KT 9999 SCT020 BKN040 TEMPO 0312/0316 4000 SHRA BKN012 FEW020CB PROB30 0312/0316 TSRA=

ENGM (16:50 UTC)

Oslo flygplats, Gardermoen

METAR

ENGM 031650Z 16013KT 9999 SCT028 SCT077 17/12 Q1013 NOSIG=

TAF

SHRACB

ENGM 031100Z 0312/0412 18010KT 9999 BKN025 TEMPO 0312/0317 4000 SHRA BKN008 SCT020CB=

ENTO (16:50 UTC)

Sandefjord flygplats, Torp

METAR

TCU

ENTO 031650Z 18013KT 150V220 9999 FEW022TCU SCT024 19/12 Q1014 NOSIG=

TAF

SHRACB

ENTO 031100Z 0312/0412 18015KT 9999 BKN030 TEMPO 0312/0316 SHRA SCT020CB TEMPO 0323/0404 VRB03KT=

ENCN (16:50 UTC)

Kristiansand flygplats, Kjevik

METAR

ENCN 031650Z 20012KT 9999 FEW034 18/12 Q1014=

TAF

ENCN 031400Z 0315/0322 20010KT 9999 FEW030=

ENZV (16:50 UTC)

Stavanger-Sola flygplats

METAR

ENZV 031650Z 25007KT 9999 SCT020 17/11 Q1015 NOSIG=

TAF

SHRACB

ENZV 031100Z 0312/0412 25008KT 9999 SCT015 BKN050 TEMPO 0312/0314 4000 SHRA BKN012CB BECMG 0400/0402 18010KT TEMPO 0402/0412 SHRA BKN012CB TEMPO 0409/0412 25009KT=

ENHD (16:50 UTC)

Haugesund flygplats, Karmøy

METAR

ENHD 031650Z 23009KT 9999 SCT016 16/10 Q1014=

TAF

ENHD AMD 031522Z 0315/0322 23009KT 9999 FEW015 SCT020 PROB30 0315/0322 BKN012=

ENBR (16:50 UTC)

Bergen flygplats, Flesland

METAR

SHRACB

ENBR 031650Z 21009KT 9999 VCSH SCT015CB BKN025 15/11 Q1013 RERA NOSIG RMK WIND 1200FT 22014KT=

TAF

SHRACBTCU

ENBR 031100Z 0312/0412 22012KT 9999 -SHRA SCT010 BKN020 TEMPO 0312/0316 SCT012CB PROB40 TEMPO 0316/0406 FEW012TCU BECMG 0322/0401 16008KT TEMPO 0406/0412 4000 SHRA BKN012CB=

ENBL (16:50 UTC)

Førde flygplats, Bringeland

METAR

SHRA

ENBL 031650Z 20007KT 9999 -SHRA FEW005 SCT015 BKN040 12/10 Q1012=

TAF

Ingen TAF hittades.

ENOV (16:50 UTC)

Ørsta-Volda flygplats, Hovden

METAR

SHRATCU

ENOV 031650Z VRB02KT 9999 -SHRA FEW025TCU BKN046 14/09 Q1010 RMK WIND RWY24 VRB01KT WIND 2090FT 21023KT=

TAF

Ingen TAF hittades.

ENML (16:50 UTC)

Molde flygplats, Årø

METAR

ENML 031650Z 22014KT 9999 FEW060 BKN080 18/08 Q1009=

TAF

SHRACB

ENML 031400Z 0315/0322 26008KT 9999 FEW020 SCT040 BKN060 TEMPO 0315/0319 SHRA BKN030CB=

ENKB (16:50 UTC)

Kristiansund flygplats, Kvernberget

METAR

ENKB 031650Z VRB02KT 9999 FEW016 SCT074 16/11 Q1009 RMK WIND 745FT VRB03KT=

TAF

SHRACB

ENKB 031400Z 0315/0321 26008KT 9999 FEW015 BKN050 TEMPO 0315/0320 SHRA BKN020CB=

ENRO (16:50 UTC)

Røros flygplats

METAR

SHRACB

ENRO 031650Z /////KT 9999 -SHRA BKN030CB 15/09 Q1011 WIND THR13 16003KT=

TAF

Ingen TAF hittades.

ENVA (16:50 UTC)

Trondheim flygplats, Værnes

METAR

SHRATCU

ENVA 031650Z 23006KT 9999 VCSH FEW019 SCT065TCU 17/14 Q1009 RMK WIND 670FT 27012KT=

TAF

TSSHRACBTCU

ENVA AMD 031538Z 0315/0412 26012KT 9999 SCT040TCU TEMPO 0315/0318 22015G25KT TEMPO 0315/0324 4000 SHRA BKN012CB PROB30 TEMPO 0315/0319 TS BECMG 0316/0318 VRB05KT TEMPO 0408/0412 4000 SHRA BKN012CB=

ENOL (16:50 UTC)

Ørland flygplats

METAR

SHRACB

ENOL 031650Z 01006KT 9999 VCSH SCT030CB BKN080 16/10 Q1010 TEMPO 31015G28KT SHRA=

TAF

TSSHRACB

ENOL 031100Z 0312/0412 35008KT 9999 -SHRA FEW030 BKN060 TEMPO 0312/0405 SHRA BKN030CB PROB30 TEMPO 0312/0318 31015G28KT TS=

ENRM (16:50 UTC)

Rørvik flygplats, Ryum

METAR

ENRM 031650Z 30006KT CAVOK 16/12 Q1010=

TAF

Ingen TAF hittades.

ENBN (16:50 UTC)

Brønnøysund flygplats, Brønnøy

METAR

TSRACB

ENBN 031650Z 21004KT 140V240 9999 TSRA FEW015 FEW040CB SCT050 14/13 Q1010=

TAF

TSSHRACB

ENBN 031400Z 0315/0324 20009KT 9999 -SHRA FEW008 SCT030 TEMPO 0315/0322 FEW030CB TEMPO 0315/0318 4000 TSRA BKN014=

ENRA (16:50 UTC)

Mo i Rana flygplats, Røssvoll

METAR

SHRA

ENRA 031650Z 33009KT 300V020 9999 VCSH FEW045 SCT070 BKN095 16/12 Q1010=

TAF

TSSHRACBTCU

ENRA COR 031400Z 0315/0321 20006KT 9999 FEW035TCU SCT060 TEMPO 0316/0321 FEW030CB PROB30 TEMPO 0316/0320 TSRA TEMPO 0319/0321 22018G28KT 4000 SHRA BKN012=

ENBO (16:50 UTC)

Bodö flygplats

METAR

SHRA

ENBO 031650Z 02007KT 9999 VCSH SCT092 21/11 Q1008 TEMPO SHRA=

TAF

TSSHRACB

ENBO 031100Z 0312/0412 01008KT 9999 SCT025 TEMPO 0315/0324 27010KT SHRA BKN030CB PROB30 TEMPO 0318/0320 TS=

ENSH (16:20 UTC)

Svolvær flygplats, Helle

METAR

ENSH 031620Z 10005KT CAVOK 17/11 Q1010 RMK WIND 150FT 17004KT 100V240=

TAF

CB

ENSH 031400Z 0315/0321 12008KT 9999 FEW040 TEMPO 0318/0321 FEW025CB=

ENAN (16:50 UTC)

Andøya flygplats

METAR

ENAN 031650Z AUTO 06005KT 9999 NCD 13/11 Q1011=

TAF

CB

ENAN AMD 031316Z 0313/0412 05008KT 9999 FEW010 SCT020 TEMPO 0321/0412 BKN030CB TEMPO 0400/0408 25010KT=

ENEV (16:50 UTC)

Harstad-Narvik flygplats

METAR

ENEV 031650Z VRB02KT CAVOK 19/10 Q1010 RMK WIND 1400FT VRB03KT=

TAF

TSSHRACB

ENEV 031100Z 0312/0412 24008KT 9999 SCT020 BKN035 TEMPO 0320/0324 SHRA FEW040CB PROB30 0320/0324 TS TEMPO 0407/0412 FEW040CB=

ENDU (16:50 UTC)

Bardufoss flygplats

METAR

ENDU 031650Z VRB02KT 9999 FEW010 SCT030 BKN050 16/12 Q1011 RMK WIND 1100FT VRB03KT WIND 2200FT VRB02KT=

TAF

CB

ENDU 031100Z 0312/0412 26006KT 9999 FEW010 SCT015 BKN025 TEMPO 0312/0314 BKN014 TEMPO 0406/0412 FEW030CB=

ENTC (16:50 UTC)

Tromsø flygplats

METAR

ENTC 031650Z 35003KT 310V040 9999 FEW033 15/10 Q1011 NOSIG RMK WIND 2600FT 21006KT=

TAF

ENTC 031100Z 0312/0412 25009KT 9999 BKN050 TEMPO 0318/0401 02010KT=

ENAT (16:50 UTC)

Alta flygplats

METAR

ENAT 031650Z 33006KT 310V020 9999 FEW026 BKN032 14/11 Q1011 RMK WIND 700FT 01010KT=

TAF

SHRACB

ENAT 031400Z 0315/0321 36012KT 9999 FEW012 BKN025 BECMG 0316/0318 VRB05KT PROB40 TEMPO 0315/0317 SHRA BKN030CB=

ENNA (16:50 UTC)

Lakselv flygplats

METAR

ENNA 031650Z 03009KT 9999 FEW010 BKN017 14/13 Q1011 RMK WIND 1800FT 35006KT=

TAF

TSSHRACB

ENNA AMD 031100Z 0312/0412 20015KT 9999 SCT050 BECMG 0312/0314 35008KT TEMPO 0312/0314 27015G25KT TEMPO 0312/0318 SHRA SCT040CB PROB30 TEMPO 0312/0318 TS PROB30 TEMPO 0409/0412 TSRA=

ENHF (16:50 UTC)

Hammerfest flygplats

METAR

ENHF 031650Z 24010KT 9999 FEW011 SCT018 BKN040 12/11 Q1011 RMK WIND 1254FT 27019KT=

TAF

SHRA

ENHF 031400Z 0315/0323 23009KT 9999 FEW006 BKN025 TEMPO 0315/0317 SHRA BKN012=

ENKR (16:50 UTC)

Kirkenes Airport, Høybuktmoen

METAR

SHRATCU

ENKR 031650Z 21009KT 160V240 9999 VCSH FEW037TCU SCT060 23/18 Q1008 RMK WIND 731FT 20016KT=

TAF

TSCB

ENKR 031400Z 0315/0324 21012KT 9999 SCT035 PROB30 TEMPO 0315/0324 TSRA TEMPO 0315/0324 FEW030CB BECMG 0319/0321 06009KT TEMPO 0321/0324 BKN012=

ENLK (16:20 UTC)

Leknes Airport

METAR

ENLK 031620Z 08006KT CAVOK 19/10 Q1009=

TAF

Ingen TAF hittades.

ENST (16:50 UTC)

Sandnessjøen Airport, Stokka

METAR

SHRA

ENST 031650Z 35003KT 290V020 9999 VCSH FEW040 BKN065 16/13 Q1009 RMK WIND 300FT 32005KT=

TAF

Ingen TAF hittades.

ENSB (16:50 UTC)

Svalbard Airport, Longyear

METAR

ENSB 031650Z 26009KT 9999 BKN030 11/07 Q1007 RMK WIND 1400FT 09005KT=

TAF

ENSB 031100Z 0312/0412 28005KT 9999 FEW010 BKN035 PROB30 TEMPO 0312/0315 BKN012 BECMG 0315/0318 12012KT=

ENSK (16:50 UTC)

Stokmarknes Airport, Skagen

METAR

ENSK 031650Z 08004KT 050V130 CAVOK 19/10 Q1009=

TAF

Ingen TAF hittades.

ENSR (16:50 UTC)

Sørkjosen Airport

METAR

ENSR 031650Z VRB03KT 9999 FEW012 SCT018 BKN029 14/11 Q1012 RMK WIND RWY32 34004KT WIND 1118FT 26004KT=

TAF

Ingen TAF hittades.

ENNM (16:50 UTC)

Namsos Airport, Høknesøra

METAR

SHRA

ENNM 031650Z VRB04KT 9999 VCSH FEW020 SCT040 BKN065 17/12 Q1009=

TAF

Ingen TAF hittades.